createdAt,value
2022-12-04T00:03:33.261Z,11.70
2022-12-04T00:06:21.651Z,10.60
2022-12-04T00:09:09.011Z,11.05
2022-12-04T00:11:56.091Z,10.65
2022-12-04T00:15:16.461Z,9.90
2022-12-04T00:17:50.116Z,11.05
2022-12-04T00:20:40.443Z,11.40
2022-12-04T00:23:27.477Z,10.13
2022-12-04T00:26:19.377Z,10.30
2022-12-04T00:29:06.536Z,11.07
2022-12-04T00:31:53.636Z,10.50
2022-12-04T00:34:40.661Z,10.43
2022-12-04T00:37:28.369Z,10.55
2022-12-04T00:40:15.512Z,9.93
2022-12-04T00:43:02.934Z,10.13
2022-12-04T00:46:15.023Z,10.02
2022-12-04T00:49:08.963Z,10.15
2022-12-04T00:51:56.032Z,9.32
2022-12-04T00:54:43.018Z,9.07
2022-12-04T00:57:30.491Z,9.05
2022-12-04T01:00:18.582Z,8.57
2022-12-04T01:03:07.333Z,9.32
2022-12-04T01:05:54.409Z,9.13
2022-12-04T01:08:41.426Z,9.38
2022-12-04T01:11:30.013Z,8.52
2022-12-04T01:14:17.116Z,9.02
2022-12-04T01:17:07.226Z,8.50
2022-12-04T01:19:54.593Z,8.20
2022-12-04T01:22:43.941Z,9.38
2022-12-04T01:25:32.259Z,8.88
2022-12-04T01:28:19.888Z,9.07
2022-12-04T01:31:10.199Z,8.90
2022-12-04T01:33:57.531Z,8.73
2022-12-04T01:36:44.603Z,9.02
2022-12-04T01:39:31.615Z,8.77
2022-12-04T01:42:18.650Z,8.77
2022-12-04T01:45:37.367Z,8.93
2022-12-04T01:48:35.358Z,9.05
2022-12-04T01:51:36.379Z,9.52
2022-12-04T01:54:28.992Z,10.70
2022-12-04T01:57:22.191Z,10.25
2022-12-04T02:00:12.622Z,9.88
2022-12-04T02:03:00.302Z,8.55
2022-12-04T02:05:47.441Z,8.10
2022-12-04T02:08:36.043Z,6.82
2022-12-04T02:11:42.222Z,8.57
2022-12-04T02:15:03.997Z,8.55
2022-12-04T02:18:18.974Z,7.60
2022-12-04T02:21:14.390Z,7.65
2022-12-04T02:24:29.082Z,7.15
2022-12-04T02:27:32.444Z,8.52
2022-12-04T02:30:19.596Z,8.82
2022-12-04T02:33:28.300Z,9.38
2022-12-04T02:36:24.583Z,8.88
2022-12-04T02:39:25.998Z,7.45
2022-12-04T02:42:22.115Z,8.10
2022-12-04T02:45:13.802Z,8.38
2022-12-04T02:48:02.897Z,8.32
2022-12-04T02:50:54.403Z,8.48
2022-12-04T02:53:46.716Z,9.32
2022-12-04T02:56:39.450Z,8.38
2022-12-04T02:59:38.658Z,8.43
2022-12-04T03:02:32.958Z,8.88
2022-12-04T03:05:25.655Z,10.00
2022-12-04T03:08:19.648Z,11.52
2022-12-04T03:11:06.979Z,10.88
2022-12-04T03:14:00.255Z,9.15
2022-12-04T03:16:50.863Z,9.35
2022-12-04T03:19:44.307Z,9.95
2022-12-04T03:22:34.616Z,11.48
2022-12-04T03:25:29.161Z,12.63
2022-12-04T03:28:55.182Z,11.57
2022-12-04T03:31:55.552Z,11.00
2022-12-04T03:34:51.313Z,12.80
2022-12-04T03:38:00.567Z,12.73
2022-12-04T03:41:27.687Z,9.63
2022-12-04T03:44:22.499Z,12.13
2022-12-04T03:47:19.556Z,10.38
2022-12-04T03:50:27.840Z,11.73
2022-12-04T03:53:27.421Z,10.95
2022-12-04T03:56:19.317Z,10.48
2022-12-04T03:59:15.159Z,10.32
2022-12-04T04:02:04.863Z,9.38
2022-12-04T04:04:54.878Z,10.95
2022-12-04T04:08:26.355Z,11.05
2022-12-04T04:11:25.676Z,13.85
2022-12-04T04:14:58.076Z,13.37
2022-12-04T04:18:23.177Z,12.85
2022-12-04T04:21:31.515Z,12.40
2022-12-04T04:24:29.463Z,12.68
2022-12-04T04:27:19.092Z,13.43
2022-12-04T04:30:09.274Z,13.13
2022-12-04T04:35:55.870Z,12.00
2022-12-04T04:39:00.277Z,13.02
2022-12-04T04:41:56.756Z,12.50
2022-12-04T04:45:01.041Z,12.75
2022-12-04T04:48:10.268Z,13.32
2022-12-04T04:51:00.148Z,13.52
2022-12-04T04:53:51.660Z,13.15
2022-12-04T04:56:46.254Z,12.18
2022-12-04T04:59:34.744Z,12.55
2022-12-04T05:02:21.926Z,12.48
2022-12-04T05:05:09.865Z,12.95
2022-12-04T05:07:56.991Z,12.18
2022-12-04T05:10:44.067Z,12.60
2022-12-04T05:13:32.204Z,13.20
2022-12-04T05:16:19.378Z,12.63
2022-12-04T05:19:25.217Z,12.15
2022-12-04T05:22:13.326Z,12.82
2022-12-04T05:25:01.410Z,13.10
2022-12-04T05:27:48.506Z,12.18
2022-12-04T05:30:35.730Z,11.43
2022-12-04T05:33:23.093Z,12.15
2022-12-04T05:36:11.447Z,13.18
2022-12-04T05:38:58.549Z,11.77
2022-12-04T05:41:45.616Z,13.48
2022-12-04T05:44:32.613Z,12.63
2022-12-04T05:47:20.008Z,13.82
2022-12-04T05:50:09.034Z,13.52
2022-12-04T05:52:56.055Z,14.10
2022-12-04T05:55:43.124Z,13.73
2022-12-04T05:58:30.992Z,14.02
2022-12-04T06:01:22.057Z,14.80
2022-12-04T06:04:09.931Z,13.60
2022-12-04T06:06:56.990Z,14.65
2022-12-04T06:09:44.248Z,14.63
2022-12-04T06:12:31.481Z,13.73
2022-12-04T06:15:18.536Z,13.88
2022-12-04T06:18:05.865Z,14.68
2022-12-04T06:20:53.067Z,14.77
2022-12-04T06:23:40.344Z,13.20
2022-12-04T06:26:28.062Z,13.75
2022-12-04T06:29:15.605Z,14.32
2022-12-04T06:32:02.890Z,14.45
2022-12-04T06:34:52.725Z,13.35
2022-12-04T06:37:39.885Z,14.57
2022-12-04T06:40:26.958Z,14.63
2022-12-04T06:43:14.012Z,14.77
2022-12-04T06:46:05.109Z,14.30
2022-12-04T06:48:54.534Z,12.93
2022-12-04T06:51:41.660Z,13.18
2022-12-04T06:54:28.814Z,14.93
2022-12-04T06:57:15.877Z,13.88
2022-12-04T07:00:03.078Z,12.80
2022-12-04T07:02:50.176Z,12.80
2022-12-04T07:05:37.331Z,13.15
2022-12-04T07:08:24.690Z,13.20
2022-12-04T07:11:12.520Z,12.15
2022-12-04T07:13:59.604Z,12.82
2022-12-04T07:16:46.727Z,12.63
2022-12-04T07:19:33.845Z,13.10
2022-12-04T07:22:21.061Z,11.98
2022-12-04T07:25:08.551Z,12.00
2022-12-04T07:27:55.916Z,11.95
2022-12-04T07:30:43.166Z,12.88
2022-12-04T07:33:30.387Z,11.68
2022-12-04T07:36:22.281Z,12.52
2022-12-04T07:39:09.834Z,11.50
2022-12-04T07:41:56.875Z,12.10
2022-12-04T07:44:43.946Z,11.32
2022-12-04T07:47:41.324Z,12.60
2022-12-04T07:50:32.212Z,12.20
2022-12-04T07:53:25.671Z,12.07
2022-12-04T07:56:13.401Z,11.65
2022-12-04T07:59:00.683Z,12.10
2022-12-04T08:01:50.911Z,12.07
2022-12-04T08:04:39.264Z,10.73
2022-12-04T08:07:26.332Z,11.40
2022-12-04T08:10:13.746Z,11.45
2022-12-04T08:13:02.153Z,11.00
2022-12-04T08:15:49.325Z,11.00
2022-12-04T08:18:36.942Z,10.75
2022-12-04T08:21:26.611Z,10.27
2022-12-04T08:24:17.504Z,11.57
2022-12-04T08:27:04.657Z,11.02
2022-12-04T08:29:51.756Z,12.55
2022-12-04T08:32:38.848Z,12.23
2022-12-04T08:35:26.909Z,11.68
2022-12-04T08:38:13.962Z,12.27
2022-12-04T08:41:02.085Z,11.75
2022-12-04T08:43:51.265Z,12.23
2022-12-04T08:46:39.061Z,11.77
2022-12-04T08:49:26.294Z,12.52
2022-12-04T08:52:19.355Z,12.13
2022-12-04T08:55:08.129Z,11.18
2022-12-04T08:58:06.399Z,12.77
2022-12-04T09:01:12.153Z,13.32
2022-12-04T09:04:02.429Z,12.60
2022-12-04T09:06:52.308Z,12.40
2022-12-04T09:09:48.415Z,13.15
2022-12-04T09:12:37.059Z,14.02
2022-12-04T09:15:24.786Z,14.75
2022-12-04T09:18:12.678Z,13.20
2022-12-04T09:21:04.457Z,13.60
2022-12-04T09:23:52.670Z,13.23
2022-12-04T09:26:43.910Z,13.45
2022-12-04T09:29:33.646Z,12.93
2022-12-04T09:32:23.590Z,14.07
2022-12-04T09:35:11.133Z,13.73
2022-12-04T09:37:59.549Z,14.05
2022-12-04T09:41:10.810Z,12.98
2022-12-04T09:44:17.441Z,13.65
2022-12-04T09:47:13.200Z,13.23
2022-12-04T09:50:07.965Z,13.93
2022-12-04T09:52:58.856Z,12.90
2022-12-04T09:55:57.324Z,13.77
2022-12-04T09:58:52.994Z,15.13
2022-12-04T10:02:01.083Z,14.88
2022-12-04T10:04:52.158Z,14.02
2022-12-04T10:08:05.106Z,13.90
2022-12-04T10:11:10.811Z,12.63
2022-12-04T10:14:38.286Z,13.23
2022-12-04T10:17:33.206Z,13.07
2022-12-04T10:20:41.088Z,13.57
2022-12-04T10:23:47.092Z,13.25
2022-12-04T10:26:46.998Z,14.05
2022-12-04T10:29:38.170Z,13.73
2022-12-04T10:32:35.238Z,13.60
2022-12-04T10:35:35.445Z,12.25
2022-12-04T10:41:36.119Z,11.27
2022-12-04T10:44:24.916Z,11.27
2022-12-04T10:47:13.649Z,12.95
2022-12-04T10:50:05.187Z,14.20
2022-12-04T10:52:52.351Z,13.48
2022-12-04T10:55:40.058Z,14.95
2022-12-04T10:58:27.368Z,14.52
2022-12-04T11:01:15.865Z,13.32
2022-12-04T11:04:08.142Z,13.82
2022-12-04T11:07:23.552Z,14.05
2022-12-04T11:10:40.821Z,12.70
2022-12-04T11:13:28.805Z,13.27
2022-12-04T11:16:50.386Z,13.30
2022-12-04T11:19:38.018Z,13.45
2022-12-04T11:22:26.534Z,13.15
2022-12-04T11:25:20.233Z,13.45
2022-12-04T11:28:39.803Z,13.68
2022-12-04T11:31:24.544Z,14.43
2022-12-04T11:34:20.892Z,14.15
2022-12-04T11:37:21.995Z,14.80
2022-12-04T11:40:19.899Z,15.25
2022-12-04T11:43:18.250Z,15.18
2022-12-04T11:46:07.174Z,14.95
2022-12-04T11:48:56.862Z,16.15
2022-12-04T11:52:06.265Z,14.80
2022-12-04T11:55:28.743Z,15.77
2022-12-04T11:58:35.556Z,14.70
2022-12-04T12:01:47.669Z,15.77
2022-12-04T12:04:45.498Z,15.65
2022-12-04T12:08:00.578Z,15.52
2022-12-04T12:11:05.982Z,15.50
2022-12-04T12:14:14.576Z,15.80
2022-12-04T12:17:27.265Z,16.80
2022-12-04T12:20:44.810Z,14.18
2022-12-04T12:23:52.354Z,15.80
2022-12-04T12:26:46.822Z,16.55
2022-12-04T12:29:56.162Z,15.35
2022-12-04T12:33:12.638Z,15.23
2022-12-04T12:36:13.488Z,14.32
2022-12-04T12:39:08.106Z,15.95
2022-12-04T12:41:59.968Z,14.50
2022-12-04T12:45:05.927Z,15.48
2022-12-04T12:47:56.781Z,15.07
2022-12-04T12:51:31.259Z,15.02
2022-12-04T12:54:45.809Z,13.70
2022-12-04T12:57:43.918Z,14.32
2022-12-04T13:00:37.706Z,13.40
2022-12-04T13:03:53.384Z,13.63
2022-12-04T13:06:43.695Z,13.40
2022-12-04T13:09:37.920Z,14.88
2022-12-04T13:12:27.153Z,14.02
2022-12-04T13:15:21.553Z,14.02
2022-12-04T13:18:18.846Z,13.45
2022-12-04T13:21:08.178Z,12.85
2022-12-04T13:24:08.733Z,13.07
2022-12-04T13:27:44.000Z,13.45
2022-12-04T13:30:43.184Z,13.45
2022-12-04T13:33:52.363Z,13.07
2022-12-04T13:37:22.448Z,12.87
2022-12-04T13:40:09.439Z,12.85
2022-12-04T13:43:15.070Z,13.35
2022-12-04T13:46:24.967Z,13.25
2022-12-04T13:49:17.932Z,12.85
2022-12-04T13:52:22.027Z,14.05
2022-12-04T13:55:29.002Z,13.38
2022-12-04T13:58:16.064Z,13.20
2022-12-04T14:01:28.250Z,13.90
2022-12-04T14:04:40.979Z,13.85
2022-12-04T14:07:30.338Z,12.38
2022-12-04T14:10:18.297Z,14.02
2022-12-04T14:13:21.641Z,13.88
2022-12-04T14:16:33.811Z,14.73
2022-12-04T14:19:31.048Z,14.00
2022-12-04T14:22:46.737Z,14.30
2022-12-04T14:25:38.663Z,14.32
2022-12-04T14:28:34.946Z,12.85
2022-12-04T14:31:39.144Z,12.95
2022-12-04T14:34:35.007Z,14.85
2022-12-04T14:37:28.948Z,14.07
2022-12-04T14:41:05.550Z,14.38
2022-12-04T14:43:54.303Z,13.82
2022-12-04T14:46:48.407Z,14.35
2022-12-04T14:49:44.356Z,14.27
2022-12-04T14:52:40.987Z,14.07
2022-12-04T14:55:41.727Z,14.02
2022-12-04T14:58:35.802Z,13.82
2022-12-04T15:01:32.073Z,15.32
2022-12-04T15:04:37.828Z,14.80
2022-12-04T15:07:30.175Z,15.23
2022-12-04T15:10:43.224Z,14.95
2022-12-04T15:13:32.947Z,14.77
2022-12-04T15:16:23.474Z,14.75
2022-12-04T15:19:19.135Z,15.50
2022-12-04T15:22:15.077Z,14.93
2022-12-04T15:25:06.705Z,14.48
2022-12-04T15:28:03.666Z,15.82
2022-12-04T15:30:53.409Z,16.00
2022-12-04T15:33:44.560Z,16.75
2022-12-04T15:36:52.592Z,16.50
2022-12-04T15:39:40.297Z,16.92
2022-12-04T15:42:33.507Z,15.52
2022-12-04T15:45:23.245Z,15.82
2022-12-04T15:48:13.247Z,14.57
2022-12-04T15:51:10.790Z,14.70
2022-12-04T15:53:58.713Z,15.40
2022-12-04T15:56:47.646Z,16.27
2022-12-04T15:59:41.779Z,14.98
2022-12-04T16:02:32.087Z,14.20
2022-12-04T16:05:22.651Z,14.20
2022-12-04T16:08:30.915Z,14.88
2022-12-04T16:11:22.887Z,14.52
2022-12-04T16:14:15.887Z,14.20
2022-12-04T16:17:06.150Z,15.05
2022-12-04T16:19:56.284Z,15.35
2022-12-04T16:22:46.144Z,14.27
2022-12-04T16:25:34.650Z,14.25
2022-12-04T16:28:22.814Z,15.05
2022-12-04T16:31:14.228Z,15.23
2022-12-04T16:34:04.689Z,14.70
2022-12-04T16:36:51.934Z,14.57
2022-12-04T16:39:41.584Z,15.77
2022-12-04T16:42:34.939Z,14.18
2022-12-04T16:45:35.556Z,15.07
2022-12-04T16:48:24.477Z,15.30
2022-12-04T16:51:17.520Z,14.63
2022-12-04T16:54:05.560Z,15.15
2022-12-04T16:56:53.717Z,14.65
2022-12-04T16:59:43.113Z,14.70
2022-12-04T17:02:32.874Z,16.08
2022-12-04T17:05:28.236Z,15.88
2022-12-04T17:08:17.226Z,15.02
2022-12-04T17:11:10.968Z,15.55
2022-12-04T17:13:59.175Z,14.60
2022-12-04T17:16:47.539Z,14.65
2022-12-04T17:19:35.578Z,14.77
2022-12-04T17:22:26.938Z,14.00
2022-12-04T17:25:16.020Z,15.57
2022-12-04T17:28:09.024Z,13.80
2022-12-04T17:30:58.993Z,14.93
2022-12-04T17:33:47.454Z,14.68
2022-12-04T17:36:35.058Z,14.07
2022-12-04T17:39:24.064Z,13.85
2022-12-04T17:42:11.796Z,15.35
2022-12-04T17:44:59.744Z,14.18
2022-12-04T17:47:47.754Z,13.90
2022-12-04T17:50:35.356Z,13.57
2022-12-04T17:53:22.880Z,13.38
2022-12-04T17:56:24.089Z,13.55
2022-12-04T17:59:12.256Z,13.25
2022-12-04T18:02:00.419Z,13.77
2022-12-04T18:04:48.555Z,13.38
2022-12-04T18:07:36.922Z,14.65
2022-12-04T18:10:27.707Z,13.93
2022-12-04T18:13:15.400Z,14.30
2022-12-04T18:16:09.130Z,12.95
2022-12-04T18:18:58.364Z,13.93
2022-12-04T18:21:46.298Z,14.00
2022-12-04T18:24:34.405Z,13.80
2022-12-04T18:27:22.253Z,13.80
2022-12-04T18:30:11.362Z,13.57
2022-12-04T18:32:59.607Z,13.93
2022-12-04T18:35:56.052Z,12.77
2022-12-04T18:38:44.181Z,12.77
2022-12-04T18:41:32.502Z,13.07
2022-12-04T18:44:21.399Z,13.52
2022-12-04T18:47:09.510Z,12.15
2022-12-04T18:49:57.757Z,11.50
2022-12-04T18:52:45.343Z,11.68
2022-12-04T18:55:37.394Z,11.98
2022-12-04T18:58:25.767Z,11.70
2022-12-04T19:01:17.201Z,12.07
2022-12-04T19:04:10.296Z,12.05
2022-12-04T19:10:11.951Z,11.27
2022-12-04T19:12:59.987Z,10.73
2022-12-04T19:15:48.059Z,11.38
2022-12-04T19:18:37.656Z,10.70
2022-12-04T19:21:26.764Z,10.48
2022-12-04T19:24:14.717Z,10.43
2022-12-04T19:27:11.805Z,11.00
2022-12-04T19:30:01.417Z,11.25
2022-12-04T19:32:49.866Z,10.70
2022-12-04T19:35:39.188Z,10.55
2022-12-04T19:38:27.984Z,10.88
2022-12-04T19:41:19.657Z,10.60
2022-12-04T19:44:40.154Z,9.68
2022-12-04T19:47:21.516Z,10.20
2022-12-04T19:50:10.624Z,9.40
2022-12-04T19:52:58.842Z,9.70
2022-12-04T19:55:48.864Z,9.95
2022-12-04T19:58:37.457Z,10.60
2022-12-04T20:01:30.559Z,10.35
2022-12-04T20:04:18.864Z,9.38
2022-12-04T20:07:09.091Z,9.40
2022-12-04T20:10:00.140Z,8.90
2022-12-04T20:12:53.498Z,9.85
2022-12-04T20:15:41.855Z,9.48
2022-12-04T20:18:30.030Z,8.95
2022-12-04T20:21:33.193Z,8.88
2022-12-04T20:24:21.151Z,9.02
2022-12-04T20:27:09.245Z,10.93
2022-12-04T20:29:59.983Z,9.43
2022-12-04T20:32:50.540Z,9.18
2022-12-04T20:35:39.307Z,9.30
2022-12-04T20:38:27.106Z,9.02
2022-12-04T20:41:16.741Z,8.55
2022-12-04T20:44:08.684Z,9.00
2022-12-04T20:46:56.515Z,9.20
2022-12-04T20:49:44.706Z,8.80
2022-12-04T20:52:33.335Z,8.38
2022-12-04T20:55:20.854Z,8.55
2022-12-04T20:58:09.259Z,8.23
2022-12-04T21:00:56.998Z,8.32
2022-12-04T21:03:45.647Z,7.97
2022-12-04T21:06:36.613Z,9.43
2022-12-04T21:09:26.961Z,8.13
2022-12-04T21:12:32.880Z,8.40
2022-12-04T21:15:47.389Z,8.60
2022-12-04T21:18:37.716Z,8.20
2022-12-04T21:24:16.199Z,7.85
2022-12-04T21:27:03.566Z,8.95
2022-12-04T21:29:51.025Z,8.48
2022-12-04T21:32:38.312Z,9.15
2022-12-04T21:35:25.406Z,9.32
2022-12-04T21:38:12.595Z,9.07
2022-12-04T21:40:59.890Z,9.68
2022-12-04T21:43:46.891Z,9.68
2022-12-04T21:46:34.329Z,8.50
2022-12-04T21:49:21.448Z,9.15
2022-12-04T21:52:22.763Z,8.30
2022-12-04T21:55:09.944Z,8.50
2022-12-04T21:57:57.017Z,7.82
2022-12-04T22:00:44.396Z,8.45
2022-12-04T22:03:31.459Z,8.77
2022-12-04T22:06:20.266Z,8.35
2022-12-04T22:09:10.469Z,7.95
2022-12-04T22:14:44.415Z,8.63
2022-12-04T22:17:31.467Z,8.65
2022-12-04T22:20:18.509Z,8.02
2022-12-04T22:23:05.587Z,7.80
2022-12-04T22:25:52.738Z,7.45
2022-12-04T22:28:40.386Z,7.00
2022-12-04T22:31:29.256Z,7.40
2022-12-04T22:34:16.343Z,7.57
2022-12-04T22:37:03.416Z,7.97
2022-12-04T22:39:50.454Z,7.57
2022-12-04T22:42:37.489Z,7.32
2022-12-04T22:45:24.619Z,7.68
2022-12-04T22:48:11.826Z,7.57
2022-12-04T22:51:11.023Z,7.50
2022-12-04T22:53:58.595Z,7.53
2022-12-04T22:56:45.632Z,7.05
2022-12-04T22:59:32.964Z,7.80
2022-12-04T23:02:20.254Z,7.50
2022-12-04T23:05:07.544Z,7.47
2022-12-04T23:07:55.667Z,6.93
2022-12-04T23:10:42.836Z,7.15
2022-12-04T23:13:29.830Z,7.45
2022-12-04T23:16:20.124Z,6.75
2022-12-04T23:19:09.467Z,7.45
2022-12-04T23:21:57.356Z,7.57
2022-12-04T23:24:44.495Z,7.30
2022-12-04T23:27:32.311Z,6.53
2022-12-04T23:30:26.166Z,6.72
2022-12-04T23:33:14.562Z,6.30
2022-12-04T23:36:09.031Z,5.63
2022-12-04T23:38:56.526Z,6.18
2022-12-04T23:41:43.510Z,6.57
2022-12-04T23:44:30.598Z,6.25
2022-12-04T23:47:17.649Z,6.45
2022-12-04T23:50:05.243Z,7.50
2022-12-04T23:52:52.281Z,6.85
2022-12-04T23:55:39.735Z,6.72
2022-12-04T23:58:26.888Z,5.82
